Time;durP1;ratioP1;P1;durP2;ratioP2;P2;SDS_P1;SDS_P2;PMS_P1;PMS_P2;Temp;Humidity;BMP_temperature;BMP_pressure;BME280_temperature;BME280_humidity;BME280_pressure;Samples;Min_cycle;Max_cycle;Signal;HPM_P1;HPM_P2
2023/07/17 00:01:20;;;;;;;6.00;4.90;;;25.80;60.40;;;;;;5046019;28;20433;-73
2023/07/17 00:03:46;;;;;;;4.67;4.27;;;25.70;60.50;;;;;;5044537;28;20445;-72
2023/07/17 00:06:15;;;;;;;5.30;4.50;;;25.80;60.90;;;;;;5043330;28;20418;-73
2023/07/17 00:08:43;;;;;;;5.40;4.90;;;25.70;61.10;;;;;;5032259;28;20563;-72
2023/07/17 00:11:12;;;;;;;4.83;4.40;;;25.70;61.40;;;;;;5050883;28;20581;-72
2023/07/17 00:13:37;;;;;;;4.90;4.43;;;25.70;61.40;;;;;;5032120;28;21092;-72
2023/07/17 00:16:06;;;;;;;4.93;4.53;;;25.70;61.20;;;;;;5044129;28;20435;-72
2023/07/17 00:18:34;;;;;;;6.07;4.47;;;25.70;61.30;;;;;;5031896;28;20443;-72
2023/07/17 00:21:02;;;;;;;5.23;4.83;;;25.60;61.60;;;;;;5050268;28;20436;-73
2023/07/17 00:23:33;;;;;;;5.63;5.03;;;25.60;61.60;;;;;;5037971;28;20441;-72
2023/07/17 00:25:59;;;;;;;4.90;4.50;;;25.60;62.00;;;;;;5041791;28;20967;-72
2023/07/17 00:28:25;;;;;;;5.63;4.93;;;25.60;61.90;;;;;;5049460;28;20639;-73
2023/07/17 00:30:51;;;;;;;4.80;4.30;;;25.60;62.30;;;;;;5049867;28;20509;-72
2023/07/17 00:33:17;;;;;;;4.50;4.10;;;25.60;62.00;;;;;;5023044;28;20261;-72
2023/07/17 00:35:50;;;;;;;4.60;4.27;;;25.60;62.10;;;;;;4999238;28;20445;-73
2023/07/17 00:38:19;;;;;;;5.30;4.80;;;25.50;61.80;;;;;;5047330;28;20437;-72
2023/07/17 00:40:48;;;;;;;5.10;4.63;;;25.60;61.80;;;;;;5029417;28;21054;-73
2023/07/17 00:43:21;;;;;;;5.00;4.60;;;25.50;61.80;;;;;;5040006;28;20426;-73
2023/07/17 00:45:47;;;;;;;4.53;4.03;;;25.60;62.00;;;;;;5015742;28;20422;-73
2023/07/17 00:48:18;;;;;;;4.60;4.20;;;25.50;61.80;;;;;;5048803;28;20805;-73
2023/07/17 00:50:46;;;;;;;6.07;4.40;;;25.50;62.00;;;;;;5015698;28;20525;-73
2023/07/17 00:53:14;;;;;;;5.23;4.63;;;25.50;61.80;;;;;;5040407;28;20500;-73
2023/07/17 00:55:40;;;;;;;5.10;4.70;;;25.50;62.20;;;;;;5031875;28;20446;-72
2023/07/17 00:58:07;;;;;;;5.87;5.20;;;25.50;62.40;;;;;;5033048;28;20471;-72
2023/07/17 01:00:34;;;;;;;5.00;4.50;;;25.50;62.20;;;;;;5052052;28;20508;-72
2023/07/17 01:03:03;;;;;;;4.67;4.27;;;25.50;62.30;;;;;;5034103;28;20447;-72
2023/07/17 01:05:31;;;;;;;4.40;4.10;;;25.50;62.20;;;;;;5012218;28;20958;-73
2023/07/17 01:08:00;;;;;;;4.90;4.40;;;25.40;62.20;;;;;;5031534;28;21225;-72
2023/07/17 01:10:27;;;;;;;5.03;4.53;;;25.50;62.30;;;;;;5031225;28;21262;-73
2023/07/17 01:12:52;;;;;;;4.33;4.00;;;25.40;62.30;;;;;;5042789;28;20436;-73
2023/07/17 01:15:28;;;;;;;4.83;4.37;;;25.40;62.90;;;;;;5103300;23;20505;-69
2023/07/17 01:17:56;;;;;;;4.57;4.17;;;25.40;63.20;;;;;;5060986;28;20493;-69
2023/07/17 01:20:22;;;;;;;4.57;4.17;;;25.40;62.70;;;;;;5048632;28;20430;-69
2023/07/17 01:22:59;;;;;;;4.77;4.37;;;25.40;62.50;;;;;;5043774;28;20432;-69
2023/07/17 01:25:25;;;;;;;4.60;4.20;;;25.40;62.60;;;;;;5047430;28;20802;-68
2023/07/17 01:27:53;;;;;;;6.17;4.57;;;25.40;63.60;;;;;;5047369;28;20497;-69
2023/07/17 01:30:24;;;;;;;5.10;4.53;;;25.40;63.00;;;;;;5035702;28;20414;-68
2023/07/17 01:32:50;;;;;;;4.40;4.00;;;25.40;63.60;;;;;;5028245;28;20431;-69
2023/07/17 01:35:22;;;;;;;4.67;4.33;;;25.30;63.10;;;;;;5016815;28;20407;-69
2023/07/17 01:37:48;;;;;;;4.73;4.00;;;25.30;63.10;;;;;;5045293;28;21038;-69
2023/07/17 01:40:17;;;;;;;4.10;3.80;;;25.30;63.20;;;;;;5034036;28;20873;-68
2023/07/17 01:42:43;;;;;;;5.00;4.57;;;25.30;63.10;;;;;;5051769;28;20430;-69
2023/07/17 01:45:09;;;;;;;4.73;4.30;;;25.30;63.10;;;;;;5051571;28;20960;-69
2023/07/17 01:47:35;;;;;;;4.30;3.90;;;25.30;63.10;;;;;;5027111;28;20557;-69
2023/07/17 01:50:04;;;;;;;4.43;4.03;;;25.20;63.20;;;;;;5025172;28;20443;-69
2023/07/17 01:52:33;;;;;;;4.30;3.93;;;25.20;63.00;;;;;;5019084;28;20541;-69
2023/07/17 01:54:59;;;;;;;4.50;4.00;;;25.20;63.20;;;;;;5044664;28;20423;-69
2023/07/17 01:57:25;;;;;;;4.13;3.73;;;25.20;63.10;;;;;;5031654;28;20537;-69
2023/07/17 01:59:51;;;;;;;5.50;3.67;;;25.20;63.20;;;;;;5041685;28;20445;-70
2023/07/17 02:02:19;;;;;;;4.60;3.67;;;25.20;63.10;;;;;;5052393;28;21039;-68
2023/07/17 02:04:45;;;;;;;4.07;3.67;;;25.20;63.30;;;;;;5033049;28;20437;-69
2023/07/17 02:07:11;;;;;;;4.13;3.73;;;25.20;63.30;;;;;;5046823;28;20830;-69
2023/07/17 02:09:37;;;;;;;5.23;4.10;;;25.20;63.40;;;;;;5052326;28;20410;-68
2023/07/17 02:12:03;;;;;;;4.30;3.80;;;25.10;63.20;;;;;;5039040;28;20448;-69
2023/07/17 02:14:31;;;;;;;4.00;3.60;;;25.10;63.30;;;;;;5047514;28;20173;-69
2023/07/17 02:17:00;;;;;;;4.33;3.93;;;25.10;63.40;;;;;;5032023;28;20468;-69
2023/07/17 02:19:31;;;;;;;4.17;3.77;;;25.10;63.60;;;;;;5051458;28;20592;-68
2023/07/17 02:21:57;;;;;;;4.37;4.07;;;25.00;63.50;;;;;;5034731;28;20850;-68
2023/07/17 02:24:23;;;;;;;3.93;3.63;;;25.00;63.20;;;;;;5051110;28;20460;-69
2023/07/17 02:26:53;;;;;;;5.00;3.90;;;25.10;63.30;;;;;;5051159;28;20802;-68
2023/07/17 02:29:24;;;;;;;3.97;3.53;;;25.00;63.20;;;;;;5051229;28;20480;-68
2023/07/17 02:31:50;;;;;;;3.97;3.67;;;25.00;63.30;;;;;;5018045;28;20524;-69
2023/07/17 02:34:19;;;;;;;4.97;4.57;;;25.00;63.20;;;;;;5034397;28;20414;-67
2023/07/17 02:36:47;;;;;;;4.20;3.83;;;25.00;63.20;;;;;;5046488;28;20868;-68
2023/07/17 02:39:15;;;;;;;4.10;3.70;;;25.00;63.40;;;;;;5030808;28;20871;-69
2023/07/17 02:41:41;;;;;;;3.77;3.33;;;25.00;63.50;;;;;;5048744;28;20556;-69
2023/07/17 02:44:09;;;;;;;3.80;3.50;;;25.00;63.50;;;;;;5024201;28;20546;-69
2023/07/17 02:46:35;;;;;;;3.80;3.50;;;25.00;63.40;;;;;;5051350;28;20431;-69
2023/07/17 02:49:01;;;;;;;3.87;3.50;;;24.90;63.20;;;;;;5050461;28;20464;-68
2023/07/17 02:51:27;;;;;;;3.53;3.23;;;24.90;63.30;;;;;;5050814;28;20217;-69
2023/07/17 02:53:56;;;;;;;4.77;4.17;;;24.90;63.30;;;;;;5035373;28;20429;-69
2023/07/17 02:56:24;;;;;;;4.33;3.90;;;24.90;64.10;;;;;;5046031;28;20512;-69
2023/07/17 02:58:55;;;;;;;4.80;4.40;;;24.90;63.30;;;;;;5038217;28;20453;-69
2023/07/17 03:01:24;;;;;;;4.50;4.20;;;24.90;63.40;;;;;;5030627;28;20429;-68
2023/07/17 03:03:54;;;;;;;4.27;3.90;;;24.90;63.30;;;;;;5040023;28;20451;-69
2023/07/17 03:06:21;;;;;;;3.80;3.40;;;24.90;63.50;;;;;;5030934;28;20434;-69
2023/07/17 03:08:49;;;;;;;3.77;3.47;;;24.90;63.50;;;;;;5033520;28;21050;-68
2023/07/17 03:11:16;;;;;;;3.50;3.30;;;24.90;63.60;;;;;;5050646;28;20952;-68
2023/07/17 03:13:42;;;;;;;3.77;3.57;;;24.90;63.70;;;;;;5048633;28;20532;-68
2023/07/17 03:16:08;;;;;;;4.40;4.00;;;24.90;63.50;;;;;;5021532;28;21235;-68
2023/07/17 03:18:34;;;;;;;4.67;3.80;;;24.90;63.50;;;;;;5023149;28;20596;-69
2023/07/17 03:21:00;;;;;;;4.13;3.83;;;24.80;63.50;;;;;;5033956;28;20200;-69
2023/07/17 03:23:26;;;;;;;3.77;3.47;;;24.80;63.60;;;;;;5033716;28;20421;-69
2023/07/17 03:25:55;;;;;;;3.50;3.20;;;24.80;63.50;;;;;;5049596;28;20721;-69
2023/07/17 03:28:25;;;;;;;4.20;3.80;;;24.80;63.60;;;;;;5033579;28;21208;-69
2023/07/17 03:30:53;;;;;;;3.53;3.33;;;24.80;63.50;;;;;;5034725;28;20855;-69
2023/07/17 03:33:24;;;;;;;3.63;3.33;;;24.70;63.30;;;;;;5013618;28;21106;-68
2023/07/17 03:35:50;;;;;;;3.80;3.60;;;24.80;63.40;;;;;;5041512;28;20461;-69
2023/07/17 03:38:16;;;;;;;4.20;3.80;;;24.70;63.20;;;;;;5049701;28;20470;-69
2023/07/17 03:40:42;;;;;;;3.27;2.97;;;24.70;63.30;;;;;;5049126;28;20431;-69
2023/07/17 03:43:11;;;;;;;3.77;3.47;;;24.70;63.30;;;;;;5050045;28;20841;-68
2023/07/17 03:45:39;;;;;;;3.40;3.17;;;24.70;63.30;;;;;;5027148;28;20437;-69
2023/07/17 03:48:07;;;;;;;3.90;3.30;;;24.70;63.20;;;;;;5041429;28;20477;-69
2023/07/17 03:50:38;;;;;;;3.00;2.80;;;24.70;63.30;;;;;;5015824;28;20454;-70
2023/07/17 03:53:04;;;;;;;3.70;3.50;;;24.70;63.30;;;;;;5031456;28;20883;-69
2023/07/17 03:55:30;;;;;;;3.40;3.10;;;24.60;63.20;;;;;;5047471;28;20547;-69
2023/07/17 03:57:56;;;;;;;3.63;3.33;;;24.60;63.30;;;;;;5025855;28;20800;-69
2023/07/17 04:00:24;;;;;;;3.57;3.27;;;24.60;63.20;;;;;;5047837;28;20418;-69
2023/07/17 04:02:52;;;;;;;3.40;2.93;;;24.60;63.30;;;;;;5049676;28;20449;-69
2023/07/17 04:05:41;;;;;;;3.23;2.93;;;24.60;63.20;;;;;;5048475;28;20993;-69
2023/07/17 04:08:11;;;;;;;3.77;3.40;;;24.60;63.30;;;;;;5045765;28;20470;-68
2023/07/17 04:10:37;;;;;;;3.33;3.13;;;24.50;63.20;;;;;;5049290;28;20418;-69
2023/07/17 04:13:06;;;;;;;3.60;3.40;;;24.50;63.20;;;;;;5031579;28;20188;-69
2023/07/17 04:15:38;;;;;;;3.77;3.40;;;24.50;63.10;;;;;;5048915;28;20493;-69
2023/07/17 04:18:08;;;;;;;3.40;3.10;;;24.50;63.10;;;;;;5036905;28;20455;-68
2023/07/17 04:20:41;;;;;;;5.40;3.60;;;24.50;63.20;;;;;;5030507;28;20427;-68
2023/07/17 04:23:10;;;;;;;3.77;3.43;;;24.50;63.20;;;;;;5038088;28;20431;-69
2023/07/17 04:25:42;;;;;;;3.90;3.60;;;24.50;63.30;;;;;;5031987;28;20419;-68
2023/07/17 04:28:10;;;;;;;3.70;3.10;;;24.50;63.20;;;;;;5027693;28;20557;-70
2023/07/17 04:30:37;;;;;;;4.33;4.03;;;24.50;63.20;;;;;;5027164;28;20522;-69
2023/07/17 04:33:08;;;;;;;3.90;3.60;;;24.40;63.20;;;;;;5025577;28;20450;-69
2023/07/17 04:35:37;;;;;;;4.00;3.60;;;24.40;63.20;;;;;;5030312;28;20430;-69
2023/07/17 04:38:03;;;;;;;4.13;3.83;;;24.40;63.30;;;;;;5026032;28;20230;-69
2023/07/17 04:40:33;;;;;;;8.93;3.80;;;24.40;63.30;;;;;;5031191;28;20415;-69
2023/07/17 04:43:02;;;;;;;3.90;3.60;;;24.40;63.40;;;;;;5032128;28;20415;-69
2023/07/17 04:45:28;;;;;;;4.20;3.80;;;24.40;63.40;;;;;;5032368;28;20425;-68
2023/07/17 04:47:58;;;;;;;3.83;3.30;;;24.40;63.50;;;;;;5047417;28;20489;-69
2023/07/17 04:50:27;;;;;;;4.30;3.70;;;24.40;63.50;;;;;;5037582;28;20453;-69
2023/07/17 04:52:53;;;;;;;3.50;3.20;;;24.30;63.30;;;;;;5028143;28;20458;-69
2023/07/17 04:55:21;;;;;;;5.10;3.57;;;24.30;63.60;;;;;;5028508;28;20435;-70
2023/07/17 04:57:48;;;;;;;3.83;3.53;;;24.30;63.70;;;;;;5040092;28;20573;-69
2023/07/17 05:00:19;;;;;;;5.93;4.10;;;24.30;63.70;;;;;;5028681;28;20770;-69
2023/07/17 05:02:48;;;;;;;3.87;3.57;;;24.30;63.50;;;;;;5047393;28;20422;-70
2023/07/17 05:05:17;;;;;;;3.53;3.30;;;24.20;63.50;;;;;;5038082;28;20797;-69
2023/07/17 05:07:43;;;;;;;3.77;3.40;;;24.20;63.80;;;;;;5022150;28;21138;-70
2023/07/17 05:10:14;;;;;;;3.30;3.00;;;24.20;63.70;;;;;;5040875;28;20530;-69
2023/07/17 05:12:43;;;;;;;3.70;3.40;;;24.20;63.70;;;;;;5043653;28;20176;-69
2023/07/17 05:15:10;;;;;;;3.40;3.10;;;24.20;63.70;;;;;;5026390;28;20445;-69
2023/07/17 05:17:36;;;;;;;4.00;3.60;;;24.20;64.00;;;;;;5044605;28;20533;-70
2023/07/17 05:20:09;;;;;;;3.90;3.50;;;24.20;64.00;;;;;;5041053;28;20492;-70
2023/07/17 05:22:37;;;;;;;5.10;3.67;;;24.20;64.00;;;;;;5041926;28;20434;-70
2023/07/17 05:25:03;;;;;;;7.47;3.60;;;24.10;63.90;;;;;;5047074;28;20409;-68
2023/07/17 05:27:29;;;;;;;3.90;3.60;;;24.10;64.80;;;;;;5053974;22;20525;-70
2023/07/17 05:29:55;;;;;;;3.73;3.40;;;24.10;64.00;;;;;;5049134;28;20936;-69
2023/07/17 05:32:21;;;;;;;6.03;3.80;;;24.10;64.10;;;;;;5048328;28;20410;-69
2023/07/17 05:34:50;;;;;;;13.90;4.20;;;24.10;64.10;;;;;;5031881;28;20419;-68
2023/07/17 05:37:18;;;;;;;8.20;4.03;;;24.10;63.90;;;;;;5028282;28;20443;-68
2023/07/17 05:39:46;;;;;;;8.43;4.80;;;24.00;64.10;;;;;;5012033;28;20945;-69
2023/07/17 05:42:16;;;;;;;8.30;4.03;;;24.00;64.20;;;;;;5018860;28;20451;-71
2023/07/17 05:44:44;;;;;;;4.67;4.20;;;24.00;64.50;;;;;;5013324;28;21017;-69
2023/07/17 05:47:11;;;;;;;7.83;3.87;;;24.00;64.40;;;;;;5035477;28;20472;-69
2023/07/17 05:49:40;;;;;;;4.60;4.20;;;24.00;64.50;;;;;;5051018;28;20794;-70
2023/07/17 05:52:11;;;;;;;4.93;4.03;;;23.90;64.20;;;;;;5050396;28;20444;-69
2023/07/17 05:54:37;;;;;;;4.27;3.50;;;23.90;64.20;;;;;;5067207;28;20407;-69
2023/07/17 05:57:03;;;;;;;6.03;4.00;;;23.90;64.20;;;;;;5048867;28;20447;-70
2023/07/17 05:59:31;;;;;;;5.97;4.30;;;23.90;64.10;;;;;;5026990;28;20533;-69
2023/07/17 06:01:59;;;;;;;4.47;4.07;;;23.90;64.20;;;;;;5027762;28;20938;-69
2023/07/17 06:04:25;;;;;;;5.70;3.87;;;23.90;64.10;;;;;;5045128;28;20191;-69
2023/07/17 06:06:53;;;;;;;6.60;4.50;;;23.90;64.20;;;;;;5030743;28;20995;-69
2023/07/17 06:09:22;;;;;;;5.90;4.50;;;23.80;64.00;;;;;;5046642;28;20220;-70
2023/07/17 06:11:48;;;;;;;4.83;4.10;;;23.90;64.20;;;;;;5048434;28;20885;-69
2023/07/17 06:14:14;;;;;;;4.50;4.07;;;23.80;63.90;;;;;;5047307;28;20480;-69
2023/07/17 06:16:40;;;;;;;6.50;4.80;;;23.80;63.90;;;;;;5030906;28;20217;-69
2023/07/17 06:19:06;;;;;;;6.53;4.20;;;23.80;63.90;;;;;;5019452;28;21023;-69
2023/07/17 06:21:32;;;;;;;4.27;3.87;;;23.80;63.90;;;;;;5032700;28;20400;-70
2023/07/17 06:23:58;;;;;;;7.93;4.17;;;23.80;63.80;;;;;;5035966;28;20939;-69
2023/07/17 06:26:24;;;;;;;5.10;4.70;;;23.80;63.80;;;;;;5050947;28;20426;-69
2023/07/17 06:28:52;;;;;;;5.00;4.20;;;23.80;63.70;;;;;;5049359;28;20576;-69
2023/07/17 06:31:22;;;;;;;7.13;4.53;;;23.80;63.80;;;;;;5067440;28;20516;-70
2023/07/17 06:33:53;;;;;;;8.83;4.33;;;23.80;63.70;;;;;;5070757;28;20930;-70
2023/07/17 06:36:19;;;;;;;5.10;4.60;;;23.70;63.60;;;;;;5070346;28;20409;-70
2023/07/17 06:38:45;;;;;;;4.83;4.43;;;23.70;63.50;;;;;;5053783;28;20264;-69
2023/07/17 06:41:14;;;;;;;5.20;4.70;;;23.70;63.50;;;;;;5072063;28;20440;-69
2023/07/17 06:43:40;;;;;;;8.37;5.80;;;23.70;63.40;;;;;;5072287;28;20459;-70
2023/07/17 06:46:06;;;;;;;8.43;5.30;;;23.70;63.30;;;;;;5046392;28;20450;-70
2023/07/17 06:48:32;;;;;;;5.43;4.90;;;23.70;63.40;;;;;;5030135;28;21004;-70
2023/07/17 06:50:58;;;;;;;5.13;4.63;;;23.70;63.40;;;;;;5043228;28;20434;-68
2023/07/17 06:53:24;;;;;;;6.00;5.13;;;23.70;63.30;;;;;;5051425;28;20410;-69
2023/07/17 06:56:03;;;;;;;6.33;5.00;;;23.70;63.30;;;;;;5049924;28;20184;-69
2023/07/17 06:58:29;;;;;;;5.53;4.87;;;23.70;63.40;;;;;;5050203;28;20456;-69
2023/07/17 07:00:59;;;;;;;5.90;5.30;;;23.70;63.40;;;;;;5062109;28;21379;-69
2023/07/17 07:03:29;;;;;;;9.10;6.10;;;23.70;63.40;;;;;;5071102;28;20425;-70
2023/07/17 07:06:00;;;;;;;6.80;5.10;;;23.70;63.40;;;;;;5068211;28;20520;-69
2023/07/17 07:08:29;;;;;;;5.97;5.17;;;23.70;63.50;;;;;;5033278;28;20981;-70
2023/07/17 07:10:59;;;;;;;5.83;5.30;;;23.70;63.50;;;;;;5049291;28;20426;-70
2023/07/17 07:13:32;;;;;;;6.83;4.67;;;23.70;63.90;;;;;;5049905;28;20545;-70
2023/07/17 07:16:03;;;;;;;7.03;4.53;;;23.70;63.50;;;;;;5044652;28;20465;-69
2023/07/17 07:18:31;;;;;;;6.77;4.43;;;23.70;63.50;;;;;;5052593;28;20542;-69
2023/07/17 07:21:00;;;;;;;5.73;5.10;;;23.60;63.40;;;;;;5036764;28;20500;-69
2023/07/17 07:23:27;;;;;;;5.90;4.93;;;23.60;63.40;;;;;;5052665;28;20454;-69
2023/07/17 07:26:02;;;;;;;5.30;4.80;;;23.60;63.30;;;;;;5050884;28;20445;-69
2023/07/17 07:28:30;;;;;;;6.93;5.30;;;23.60;63.30;;;;;;5065015;28;20491;-68
2023/07/17 07:30:57;;;;;;;6.03;4.90;;;23.60;63.30;;;;;;5070952;28;20402;-69
2023/07/17 07:33:24;;;;;;;5.73;5.23;;;23.60;63.20;;;;;;5049642;28;20214;-68
2023/07/17 07:35:53;;;;;;;6.10;5.37;;;23.60;63.20;;;;;;5033092;28;20488;-72
2023/07/17 07:38:23;;;;;;;5.90;5.40;;;23.60;63.20;;;;;;5029950;28;20468;-72
2023/07/17 07:40:52;;;;;;;8.07;5.63;;;23.60;63.00;;;;;;5013912;28;20799;-72
2023/07/17 07:43:18;;;;;;;9.73;5.30;;;23.70;63.20;;;;;;5035495;28;20446;-71
2023/07/17 07:45:46;;;;;;;6.37;5.70;;;23.60;63.00;;;;;;5042802;28;20513;-71
2023/07/17 07:48:12;;;;;;;5.60;5.00;;;23.70;62.90;;;;;;5033378;28;21003;-72
2023/07/17 07:50:43;;;;;;;7.43;5.63;;;23.70;62.80;;;;;;5033087;28;20406;-73
2023/07/17 07:53:11;;;;;;;7.07;5.53;;;23.70;62.70;;;;;;5036376;28;20509;-71
2023/07/17 07:55:37;;;;;;;6.70;5.23;;;23.70;62.80;;;;;;5068561;28;20414;-71
2023/07/17 07:58:03;;;;;;;6.43;5.83;;;23.70;62.60;;;;;;5068924;28;20441;-71
2023/07/17 08:00:30;;;;;;;6.53;5.20;;;23.70;62.50;;;;;;5069462;28;20430;-71
2023/07/17 08:02:56;;;;;;;7.60;5.30;;;23.70;62.50;;;;;;5068347;28;20919;-70
2023/07/17 08:05:22;;;;;;;7.50;5.60;;;23.70;62.50;;;;;;5067359;28;20540;-71
2023/07/17 08:07:50;;;;;;;6.77;5.27;;;23.70;62.40;;;;;;5051424;28;20774;-71
2023/07/17 08:10:16;;;;;;;8.07;6.17;;;23.70;62.40;;;;;;5035782;28;20455;-71
2023/07/17 08:12:42;;;;;;;6.93;6.07;;;23.70;62.40;;;;;;5037859;28;21143;-71
2023/07/17 08:15:10;;;;;;;6.50;5.90;;;23.70;62.30;;;;;;5043257;28;20510;-71
2023/07/17 08:17:38;;;;;;;6.63;5.40;;;23.70;62.30;;;;;;5012673;28;20482;-71
2023/07/17 08:20:07;;;;;;;7.57;5.60;;;23.70;62.20;;;;;;4996245;28;20435;-71
2023/07/17 08:22:33;;;;;;;6.43;5.83;;;23.80;62.30;;;;;;5029505;28;20434;-71
2023/07/17 08:25:01;;;;;;;6.33;5.50;;;23.80;62.20;;;;;;5012444;28;20952;-71
2023/07/17 08:27:27;;;;;;;6.43;5.73;;;23.80;62.20;;;;;;5028308;28;20525;-71
2023/07/17 08:29:58;;;;;;;6.90;6.20;;;23.80;61.80;;;;;;5028847;28;20428;-72
2023/07/17 08:32:26;;;;;;;6.90;6.27;;;23.80;61.80;;;;;;5029443;28;20966;-71
2023/07/17 08:34:52;;;;;;;5.93;5.43;;;23.80;61.70;;;;;;5028620;28;20498;-71
2023/07/17 08:37:18;;;;;;;7.07;5.40;;;23.80;61.50;;;;;;5028108;28;20450;-71
2023/07/17 08:39:51;;;;;;;6.27;5.67;;;23.80;61.30;;;;;;5012382;28;20470;-72
2023/07/17 08:42:17;;;;;;;6.50;5.57;;;23.80;61.20;;;;;;5028179;28;20415;-71
2023/07/17 08:44:43;;;;;;;7.37;5.40;;;23.80;61.20;;;;;;5011671;28;20416;-71
2023/07/17 08:47:12;;;;;;;7.23;5.43;;;23.80;61.00;;;;;;5028200;28;20498;-71
2023/07/17 08:49:39;;;;;;;6.60;6.00;;;23.90;61.00;;;;;;5011671;28;20810;-71
2023/07/17 08:52:07;;;;;;;6.27;5.77;;;23.90;60.90;;;;;;5028037;28;20432;-71
2023/07/17 08:54:35;;;;;;;7.30;6.43;;;23.90;60.60;;;;;;5011720;28;20791;-72
2023/07/17 08:57:05;;;;;;;6.10;5.60;;;23.90;60.40;;;;;;5063598;28;20504;-71
2023/07/17 08:59:37;;;;;;;7.67;5.57;;;23.90;60.40;;;;;;5069463;28;20401;-71
2023/07/17 09:02:08;;;;;;;6.67;5.93;;;23.90;60.40;;;;;;5051396;28;20498;-72
2023/07/17 09:04:36;;;;;;;6.23;5.73;;;23.90;60.30;;;;;;5051135;28;20426;-71
2023/07/17 09:07:07;;;;;;;6.87;5.53;;;23.90;60.30;;;;;;5069250;28;20579;-72
2023/07/17 09:09:36;;;;;;;5.23;4.73;;;23.90;60.30;;;;;;5065290;28;20438;-71
2023/07/17 09:12:09;;;;;;;5.90;5.00;;;24.00;60.20;;;;;;5047976;28;20433;-71
2023/07/17 09:14:41;;;;;;;6.37;5.03;;;24.00;61.00;;;;;;5047525;28;20496;-71
2023/07/17 09:17:08;;;;;;;5.20;4.70;;;24.00;59.90;;;;;;5030790;28;20430;-71
2023/07/17 09:19:37;;;;;;;5.93;4.97;;;24.00;59.80;;;;;;5140984;22;20815;-74
2023/07/17 09:22:06;;;;;;;5.20;4.70;;;24.00;59.80;;;;;;5104596;28;20533;-73
2023/07/17 09:24:33;;;;;;;5.73;5.20;;;24.10;59.70;;;;;;5107732;28;20423;-73
2023/07/17 09:26:59;;;;;;;6.33;5.73;;;24.10;59.80;;;;;;5108216;28;20420;-75
2023/07/17 09:29:29;;;;;;;8.03;5.37;;;24.10;59.70;;;;;;5107864;28;20443;-74
2023/07/17 09:31:57;;;;;;;6.47;5.10;;;24.10;59.40;;;;;;5108160;28;20484;-76
2023/07/17 09:34:23;;;;;;;7.13;4.87;;;24.10;59.30;;;;;;5090829;28;20392;-76
2023/07/17 09:36:54;;;;;;;5.27;4.80;;;24.20;59.30;;;;;;5090904;28;20817;-76
2023/07/17 09:39:24;;;;;;;7.70;5.43;;;24.20;59.20;;;;;;5107880;28;20448;-76
2023/07/17 09:41:52;;;;;;;5.37;4.87;;;24.20;59.20;;;;;;5107922;28;20448;-76
2023/07/17 09:44:18;;;;;;;5.70;5.20;;;24.20;59.20;;;;;;5074129;28;20431;-76
2023/07/17 09:46:48;;;;;;;5.50;5.00;;;24.20;59.30;;;;;;5092043;28;20417;-76
2023/07/17 09:49:19;;;;;;;7.57;4.87;;;24.20;58.80;;;;;;5087675;28;20452;-76
2023/07/17 09:51:46;;;;;;;5.57;5.07;;;24.20;59.00;;;;;;5091743;28;20846;-76
2023/07/17 09:54:12;;;;;;;5.53;5.03;;;24.30;58.30;;;;;;5091282;28;20882;-75
2023/07/17 09:56:41;;;;;;;5.20;4.33;;;24.30;58.40;;;;;;5091280;28;20432;-76
2023/07/17 09:59:17;;;;;;;5.40;4.70;;;24.30;58.30;;;;;;5093082;28;20466;-76
2023/07/17 10:01:49;;;;;;;5.37;4.83;;;24.40;58.30;;;;;;5092398;28;20428;-76
2023/07/17 10:04:31;;;;;;;7.00;4.80;;;24.40;58.20;;;;;;5091245;28;20423;-76
2023/07/17 10:07:02;;;;;;;5.27;4.70;;;24.40;58.10;;;;;;5089099;28;20416;-76
2023/07/17 10:09:29;;;;;;;5.57;5.07;;;24.40;58.40;;;;;;5054119;28;20457;-76
2023/07/17 10:11:56;;;;;;;5.07;4.60;;;24.40;58.30;;;;;;5070927;28;20409;-76
2023/07/17 10:14:24;;;;;;;5.23;4.37;;;24.40;58.20;;;;;;5070639;28;20455;-75
2023/07/17 10:16:53;;;;;;;4.97;4.57;;;24.50;58.10;;;;;;5053818;28;20435;-75
2023/07/17 10:19:19;;;;;;;5.13;4.70;;;24.50;58.30;;;;;;5090823;28;20460;-76
2023/07/17 10:21:56;;;;;;;5.43;5.03;;;24.50;58.30;;;;;;5074114;28;20445;-77
2023/07/17 10:24:23;;;;;;;5.40;4.90;;;24.50;58.40;;;;;;5074215;28;20416;-77
2023/07/17 10:26:52;;;;;;;7.53;4.63;;;24.60;58.20;;;;;;5058350;28;20473;-77
2023/07/17 10:29:45;;;;;;;11.30;4.90;;;24.60;58.20;;;;;;5092318;28;20437;-77
2023/07/17 10:32:14;;;;;;;7.23;4.70;;;24.70;57.90;;;;;;5091436;28;20772;-77
2023/07/17 10:34:52;;;;;;;5.30;4.80;;;24.70;58.10;;;;;;5090628;28;20460;-78
2023/07/17 10:37:40;;;;;;;7.80;5.60;;;24.70;58.00;;;;;;5057410;28;20439;-77
2023/07/17 10:40:07;;;;;;;9.33;5.53;;;24.80;58.00;;;;;;5090323;28;20424;-77
2023/07/17 10:42:36;;;;;;;5.57;5.07;;;24.80;58.00;;;;;;5073781;28;20425;-76
2023/07/17 10:45:11;;;;;;;5.40;4.90;;;24.80;58.00;;;;;;5074357;28;20401;-77
2023/07/17 10:47:40;;;;;;;5.27;4.70;;;24.90;58.20;;;;;;5091071;28;20503;-76
2023/07/17 10:50:06;;;;;;;4.90;4.50;;;24.90;58.10;;;;;;5092446;28;20416;-77
2023/07/17 10:52:35;;;;;;;10.17;4.80;;;25.00;57.80;;;;;;5074723;28;20424;-74
2023/07/17 10:55:05;;;;;;;7.50;5.33;;;25.00;57.80;;;;;;5090700;28;20437;-74
2023/07/17 10:57:36;;;;;;;5.23;4.33;;;25.00;57.50;;;;;;5092109;28;20516;-75
2023/07/17 11:00:04;;;;;;;5.53;4.83;;;25.00;57.40;;;;;;5073915;28;20431;-76
2023/07/17 11:02:30;;;;;;;5.97;5.10;;;25.10;57.60;;;;;;5090926;28;20944;-77
2023/07/17 11:05:02;;;;;;;6.03;5.50;;;25.10;57.40;;;;;;5074316;28;20425;-77
2023/07/17 11:07:34;;;;;;;6.57;5.63;;;25.10;57.50;;;;;;5091098;28;20460;-75
2023/07/17 11:10:03;;;;;;;6.30;5.70;;;25.10;57.40;;;;;;5090329;28;20514;-75
2023/07/17 11:12:31;;;;;;;7.10;5.73;;;25.20;57.70;;;;;;5074030;28;20585;-75
2023/07/17 11:15:03;;;;;;;6.57;5.43;;;25.20;57.40;;;;;;5074095;28;20489;-74
2023/07/17 11:17:30;;;;;;;7.20;5.93;;;25.20;57.10;;;;;;5090702;28;20875;-77
2023/07/17 11:20:05;;;;;;;6.00;5.37;;;25.20;56.90;;;;;;5090679;28;20436;-75
2023/07/17 11:22:31;;;;;;;6.97;5.87;;;25.20;57.10;;;;;;5090782;28;20568;-75
2023/07/17 11:24:58;;;;;;;7.00;5.30;;;25.20;56.90;;;;;;5090016;28;20413;-74
2023/07/17 11:27:24;;;;;;;6.30;5.73;;;25.30;57.30;;;;;;5056218;28;20480;-74
2023/07/17 11:29:51;;;;;;;5.73;5.20;;;25.30;56.80;;;;;;5066458;28;20968;-74
2023/07/17 11:32:21;;;;;;;8.93;6.10;;;25.30;56.80;;;;;;5072989;28;20469;-74
2023/07/17 11:34:56;;;;;;;7.83;6.10;;;25.30;57.10;;;;;;5068680;28;21209;-74
2023/07/17 11:37:37;;;;;;;6.90;5.77;;;25.30;56.90;;;;;;5075151;28;20496;-76
2023/07/17 11:40:08;;;;;;;6.70;6.10;;;25.30;57.10;;;;;;5052483;28;20417;-74
2023/07/17 11:43:04;;;;;;;6.20;5.57;;;25.40;57.00;;;;;;5069590;28;20415;-74
2023/07/17 11:45:31;;;;;;;6.30;5.50;;;25.40;57.10;;;;;;5057458;28;20476;-74
2023/07/17 11:47:59;;;;;;;5.93;5.23;;;25.40;56.90;;;;;;5069572;28;20483;-74
2023/07/17 11:50:27;;;;;;;6.90;6.20;;;25.40;57.00;;;;;;5036437;28;20440;-74
2023/07/17 11:53:06;;;;;;;6.70;6.10;;;25.50;57.30;;;;;;5069394;28;20440;-74
2023/07/17 11:55:36;;;;;;;6.73;6.00;;;25.40;56.30;;;;;;5069620;28;20421;-74
2023/07/17 11:58:17;;;;;;;5.93;5.33;;;25.50;56.40;;;;;;5036299;28;20452;-74
2023/07/17 12:00:49;;;;;;;6.97;6.20;;;25.50;56.20;;;;;;5053588;28;20423;-74
2023/07/17 12:03:16;;;;;;;8.73;5.90;;;25.50;56.10;;;;;;5069162;28;20395;-74
2023/07/17 12:05:45;;;;;;;6.20;5.60;;;25.50;56.10;;;;;;5053426;28;20453;-74
2023/07/17 12:08:12;;;;;;;6.10;5.60;;;25.50;56.20;;;;;;5052246;28;20465;-74
2023/07/17 12:10:38;;;;;;;6.40;5.80;;;25.60;56.30;;;;;;5069029;28;20427;-74
2023/07/17 12:13:04;;;;;;;6.60;5.67;;;25.50;56.40;;;;;;5068249;28;20418;-73
2023/07/17 12:15:33;;;;;;;6.63;6.00;;;25.60;56.40;;;;;;5070115;28;20409;-74
2023/07/17 12:18:02;;;;;;;6.47;5.83;;;25.60;56.50;;;;;;5068992;28;20508;-74
2023/07/17 12:20:29;;;;;;;6.80;5.37;;;25.60;56.70;;;;;;5068692;28;20479;-73
2023/07/17 12:22:57;;;;;;;6.47;5.87;;;25.60;56.10;;;;;;5055590;28;20435;-74
2023/07/17 12:25:26;;;;;;;6.77;6.07;;;25.60;56.50;;;;;;5089237;28;20412;-74
2023/07/17 12:27:59;;;;;;;7.60;5.43;;;25.60;56.90;;;;;;5072160;28;20461;-74
2023/07/17 12:30:25;;;;;;;8.00;6.17;;;25.60;56.40;;;;;;5090468;28;21021;-74
2023/07/17 12:32:53;;;;;;;6.60;5.97;;;25.60;56.50;;;;;;5056115;28;20424;-74
2023/07/17 12:35:21;;;;;;;8.60;6.00;;;25.70;56.70;;;;;;5089088;28;20487;-74
2023/07/17 12:37:50;;;;;;;6.40;5.43;;;25.70;56.40;;;;;;5088785;28;20547;-74
2023/07/17 12:40:16;;;;;;;6.57;5.83;;;25.70;56.80;;;;;;5090268;28;20397;-74
2023/07/17 12:42:45;;;;;;;7.47;6.43;;;25.80;56.70;;;;;;5089251;28;20405;-74
2023/07/17 12:45:13;;;;;;;6.53;5.83;;;25.80;56.60;;;;;;5089139;28;20586;-73
2023/07/17 12:47:41;;;;;;;7.13;6.43;;;25.80;56.20;;;;;;5089122;28;20460;-74
2023/07/17 12:50:10;;;;;;;6.10;5.50;;;25.80;55.70;;;;;;5089368;28;20424;-73
2023/07/17 12:52:36;;;;;;;8.50;6.40;;;25.90;55.90;;;;;;5089145;28;20401;-74